KANQ/ANQ METAR and TAF weather

Enter ICAO airport designator
Station Type Date Time Source
KANQ METAR 2021/06/22 23:15 UTC NOAA

KANQ 222315Z AUTO 30008G14KT 10SM CLR 19/05 A2998 RMK AO2


Station Type Date Time Source
KANQ Decoded METAR 2021/06/22 23:15 UTC NOAA

Station name not available
Jun 22, 2021 - 07:15 PM EDT / 2021.06.22 2315 UTC
Wind: from the WNW (300 degrees) at 9 MPH (8 KT) gusting to 16 MPH (14 KT):0
Visibility: 10 mile(s):0
Sky conditions: clear
Temperature: 66 F (19 C)
Dew Point: 41 F (5 C)
Relative Humidity: 39%
Pressure (altimeter): 29.98 in. Hg (1015 hPa)
ob: KANQ 222315Z AUTO 30008G14KT 10SM CLR 19/05 A2998 RMK AO2
cycle: 23

Station Type Date Time Source
KANQ TAF UTC NOAA

Error!

Example: see airport list